sensor_id;sensor_type;location;lat;lon;timestamp;P1;durP1;ratioP1;P2;durP2;ratioP2
54871;SDS011;43914;57.680;11.982;2022-07-10T00:00:03;5.90;;;1.30;;
54871;SDS011;43914;57.680;11.982;2022-07-10T00:02:36;8.07;;;1.33;;
54871;SDS011;43914;57.680;11.982;2022-07-10T00:05:04;6.47;;;1.40;;
54871;SDS011;43914;57.680;11.982;2022-07-10T00:07:31;5.70;;;1.20;;
54871;SDS011;43914;57.680;11.982;2022-07-10T00:09:57;5.65;;;1.40;;
54871;SDS011;43914;57.680;11.982;2022-07-10T00:12:22;4.08;;;1.20;;
54871;SDS011;43914;57.680;11.982;2022-07-10T00:14:49;5.25;;;1.22;;
54871;SDS011;43914;57.680;11.982;2022-07-10T00:17:15;7.90;;;1.17;;
54871;SDS011;43914;57.680;11.982;2022-07-10T00:19:41;5.50;;;1.20;;
54871;SDS011;43914;57.680;11.982;2022-07-10T00:22:07;4.55;;;1.10;;
54871;SDS011;43914;57.680;11.982;2022-07-10T00:24:33;5.10;;;1.10;;
54871;SDS011;43914;57.680;11.982;2022-07-10T00:26:59;4.80;;;1.05;;
54871;SDS011;43914;57.680;11.982;2022-07-10T00:29:25;4.37;;;0.90;;
54871;SDS011;43914;57.680;11.982;2022-07-10T00:31:51;5.85;;;1.10;;
54871;SDS011;43914;57.680;11.982;2022-07-10T00:34:17;4.92;;;1.20;;
54871;SDS011;43914;57.680;11.982;2022-07-10T00:36:43;4.90;;;1.17;;
54871;SDS011;43914;57.680;11.982;2022-07-10T00:39:11;4.17;;;1.10;;
54871;SDS011;43914;57.680;11.982;2022-07-10T00:41:37;5.28;;;1.30;;
54871;SDS011;43914;57.680;11.982;2022-07-10T00:44:03;4.33;;;0.98;;
54871;SDS011;43914;57.680;11.982;2022-07-10T00:46:30;4.55;;;1.10;;
54871;SDS011;43914;57.680;11.982;2022-07-10T00:48:57;5.90;;;1.00;;
54871;SDS011;43914;57.680;11.982;2022-07-10T00:51:27;4.12;;;1.10;;
54871;SDS011;43914;57.680;11.982;2022-07-10T00:53:55;4.20;;;1.17;;
54871;SDS011;43914;57.680;11.982;2022-07-10T00:56:23;4.15;;;1.20;;
54871;SDS011;43914;57.680;11.982;2022-07-10T00:58:51;5.22;;;1.10;;
54871;SDS011;43914;57.680;11.982;2022-07-10T01:01:18;5.85;;;1.02;;
54871;SDS011;43914;57.680;11.982;2022-07-10T01:03:45;5.60;;;1.10;;
54871;SDS011;43914;57.680;11.982;2022-07-10T01:06:15;7.08;;;1.10;;
54871;SDS011;43914;57.680;11.982;2022-07-10T01:08:42;4.53;;;1.02;;
54871;SDS011;43914;57.680;11.982;2022-07-10T01:11:10;2.92;;;0.90;;
54871;SDS011;43914;57.680;11.982;2022-07-10T01:13:36;5.05;;;0.95;;
54871;SDS011;43914;57.680;11.982;2022-07-10T01:16:02;4.90;;;0.90;;
54871;SDS011;43914;57.680;11.982;2022-07-10T01:18:29;4.05;;;1.00;;
54871;SDS011;43914;57.680;11.982;2022-07-10T01:20:55;4.17;;;0.90;;
54871;SDS011;43914;57.680;11.982;2022-07-10T01:23:22;4.35;;;1.05;;
54871;SDS011;43914;57.680;11.982;2022-07-10T01:25:49;4.78;;;0.98;;
54871;SDS011;43914;57.680;11.982;2022-07-10T01:28:16;5.12;;;1.07;;
54871;SDS011;43914;57.680;11.982;2022-07-10T01:30:43;4.20;;;0.98;;
54871;SDS011;43914;57.680;11.982;2022-07-10T01:33:09;6.12;;;1.17;;
54871;SDS011;43914;57.680;11.982;2022-07-10T01:35:35;4.25;;;1.00;;
54871;SDS011;43914;57.680;11.982;2022-07-10T01:38:01;4.83;;;1.00;;
54871;SDS011;43914;57.680;11.982;2022-07-10T01:40:27;4.80;;;1.10;;
54871;SDS011;43914;57.680;11.982;2022-07-10T01:42:53;4.70;;;1.07;;
54871;SDS011;43914;57.680;11.982;2022-07-10T01:45:19;4.70;;;0.90;;
54871;SDS011;43914;57.680;11.982;2022-07-10T01:47:45;5.17;;;1.10;;
54871;SDS011;43914;57.680;11.982;2022-07-10T01:50:11;4.12;;;0.93;;
54871;SDS011;43914;57.680;11.982;2022-07-10T01:52:37;3.58;;;0.93;;
54871;SDS011;43914;57.680;11.982;2022-07-10T01:55:04;4.72;;;1.00;;
54871;SDS011;43914;57.680;11.982;2022-07-10T01:57:31;5.67;;;1.00;;
54871;SDS011;43914;57.680;11.982;2022-07-10T01:59:57;4.45;;;0.90;;
54871;SDS011;43914;57.680;11.982;2022-07-10T02:02:23;4.22;;;0.90;;
54871;SDS011;43914;57.680;11.982;2022-07-10T02:04:49;4.15;;;0.93;;
54871;SDS011;43914;57.680;11.982;2022-07-10T02:07:16;3.58;;;0.80;;
54871;SDS011;43914;57.680;11.982;2022-07-10T02:09:44;3.77;;;0.98;;
54871;SDS011;43914;57.680;11.982;2022-07-10T02:12:12;4.83;;;0.90;;
54871;SDS011;43914;57.680;11.982;2022-07-10T02:14:41;4.20;;;1.00;;
54871;SDS011;43914;57.680;11.982;2022-07-10T02:17:07;3.75;;;0.80;;
54871;SDS011;43914;57.680;11.982;2022-07-10T02:19:34;3.47;;;0.80;;
54871;SDS011;43914;57.680;11.982;2022-07-10T02:22:00;5.30;;;1.00;;
54871;SDS011;43914;57.680;11.982;2022-07-10T02:24:26;3.27;;;0.85;;
54871;SDS011;43914;57.680;11.982;2022-07-10T02:26:52;2.37;;;0.80;;
54871;SDS011;43914;57.680;11.982;2022-07-10T02:29:20;3.77;;;0.93;;
54871;SDS011;43914;57.680;11.982;2022-07-10T02:31:48;2.62;;;0.80;;
54871;SDS011;43914;57.680;11.982;2022-07-10T02:34:14;4.97;;;0.80;;
54871;SDS011;43914;57.680;11.982;2022-07-10T02:36:40;1.75;;;0.70;;
54871;SDS011;43914;57.680;11.982;2022-07-10T02:39:06;5.70;;;0.70;;
54871;SDS011;43914;57.680;11.982;2022-07-10T02:41:34;4.12;;;0.80;;
54871;SDS011;43914;57.680;11.982;2022-07-10T02:44:02;2.35;;;0.70;;
54871;SDS011;43914;57.680;11.982;2022-07-10T02:46:29;2.98;;;0.80;;
54871;SDS011;43914;57.680;11.982;2022-07-10T02:48:55;1.95;;;0.70;;
54871;SDS011;43914;57.680;11.982;2022-07-10T02:51:21;2.90;;;0.82;;
54871;SDS011;43914;57.680;11.982;2022-07-10T02:53:47;2.00;;;0.65;;
54871;SDS011;43914;57.680;11.982;2022-07-10T02:56:13;6.45;;;0.90;;
54871;SDS011;43914;57.680;11.982;2022-07-10T02:58:39;2.52;;;0.80;;
54871;SDS011;43914;57.680;11.982;2022-07-10T03:01:05;3.77;;;0.95;;
54871;SDS011;43914;57.680;11.982;2022-07-10T03:03:31;5.78;;;0.80;;
54871;SDS011;43914;57.680;11.982;2022-07-10T03:05:58;3.65;;;0.80;;
54871;SDS011;43914;57.680;11.982;2022-07-10T03:08:24;3.33;;;0.82;;
54871;SDS011;43914;57.680;11.982;2022-07-10T03:10:50;3.10;;;0.75;;
54871;SDS011;43914;57.680;11.982;2022-07-10T03:13:16;4.08;;;0.80;;
54871;SDS011;43914;57.680;11.982;2022-07-10T03:15:42;4.65;;;0.90;;
54871;SDS011;43914;57.680;11.982;2022-07-10T03:18:08;1.85;;;0.70;;
54871;SDS011;43914;57.680;11.982;2022-07-10T03:20:34;2.80;;;0.80;;
54871;SDS011;43914;57.680;11.982;2022-07-10T03:23:00;1.75;;;0.70;;
54871;SDS011;43914;57.680;11.982;2022-07-10T03:25:25;3.67;;;0.70;;
54871;SDS011;43914;57.680;11.982;2022-07-10T03:27:51;3.35;;;0.82;;
54871;SDS011;43914;57.680;11.982;2022-07-10T03:30:17;2.45;;;0.70;;
54871;SDS011;43914;57.680;11.982;2022-07-10T03:32:45;2.87;;;0.80;;
54871;SDS011;43914;57.680;11.982;2022-07-10T03:35:12;2.95;;;0.75;;
54871;SDS011;43914;57.680;11.982;2022-07-10T03:37:38;1.62;;;0.70;;
54871;SDS011;43914;57.680;11.982;2022-07-10T03:40:04;1.80;;;0.70;;
54871;SDS011;43914;57.680;11.982;2022-07-10T03:42:32;2.95;;;0.70;;
54871;SDS011;43914;57.680;11.982;2022-07-10T03:44:58;2.62;;;0.80;;
54871;SDS011;43914;57.680;11.982;2022-07-10T03:47:26;3.30;;;0.80;;
54871;SDS011;43914;57.680;11.982;2022-07-10T03:49:51;3.00;;;0.70;;
54871;SDS011;43914;57.680;11.982;2022-07-10T03:52:17;2.60;;;0.70;;
54871;SDS011;43914;57.680;11.982;2022-07-10T03:54:43;2.22;;;0.82;;
54871;SDS011;43914;57.680;11.982;2022-07-10T03:57:09;3.67;;;0.80;;
54871;SDS011;43914;57.680;11.982;2022-07-10T03:59:53;2.00;;;0.70;;
54871;SDS011;43914;57.680;11.982;2022-07-10T04:02:19;2.42;;;0.80;;
54871;SDS011;43914;57.680;11.982;2022-07-10T04:04:45;1.92;;;0.70;;
54871;SDS011;43914;57.680;11.982;2022-07-10T04:07:11;3.37;;;0.80;;
54871;SDS011;43914;57.680;11.982;2022-07-10T04:09:37;4.58;;;0.90;;
54871;SDS011;43914;57.680;11.982;2022-07-10T04:12:04;1.57;;;0.65;;
54871;SDS011;43914;57.680;11.982;2022-07-10T04:14:30;1.87;;;0.70;;
54871;SDS011;43914;57.680;11.982;2022-07-10T04:16:56;1.22;;;0.60;;
54871;SDS011;43914;57.680;11.982;2022-07-10T04:19:22;2.27;;;0.72;;
54871;SDS011;43914;57.680;11.982;2022-07-10T04:21:49;1.87;;;0.70;;
54871;SDS011;43914;57.680;11.982;2022-07-10T04:24:15;2.72;;;0.85;;
54871;SDS011;43914;57.680;11.982;2022-07-10T04:26:40;1.62;;;0.70;;
54871;SDS011;43914;57.680;11.982;2022-07-10T04:29:08;2.00;;;0.70;;
54871;SDS011;43914;57.680;11.982;2022-07-10T04:31:34;2.90;;;0.80;;
54871;SDS011;43914;57.680;11.982;2022-07-10T04:33:59;4.37;;;0.78;;
54871;SDS011;43914;57.680;11.982;2022-07-10T04:36:26;2.70;;;0.70;;
54871;SDS011;43914;57.680;11.982;2022-07-10T04:38:51;2.17;;;0.80;;
54871;SDS011;43914;57.680;11.982;2022-07-10T04:41:17;1.45;;;0.70;;
54871;SDS011;43914;57.680;11.982;2022-07-10T04:43:43;2.17;;;0.70;;
54871;SDS011;43914;57.680;11.982;2022-07-10T04:46:09;3.65;;;0.80;;
54871;SDS011;43914;57.680;11.982;2022-07-10T04:48:34;2.67;;;0.80;;
54871;SDS011;43914;57.680;11.982;2022-07-10T04:51:00;2.35;;;0.80;;
54871;SDS011;43914;57.680;11.982;2022-07-10T04:53:26;4.87;;;0.68;;
54871;SDS011;43914;57.680;11.982;2022-07-10T04:55:52;3.25;;;0.70;;
54871;SDS011;43914;57.680;11.982;2022-07-10T04:58:18;2.60;;;0.78;;
54871;SDS011;43914;57.680;11.982;2022-07-10T05:00:45;3.35;;;0.80;;
54871;SDS011;43914;57.680;11.982;2022-07-10T05:03:11;2.35;;;0.70;;
54871;SDS011;43914;57.680;11.982;2022-07-10T05:05:38;4.22;;;1.00;;
54871;SDS011;43914;57.680;11.982;2022-07-10T05:08:03;1.37;;;0.70;;
54871;SDS011;43914;57.680;11.982;2022-07-10T05:10:30;1.12;;;0.60;;
54871;SDS011;43914;57.680;11.982;2022-07-10T05:12:55;2.33;;;0.70;;
54871;SDS011;43914;57.680;11.982;2022-07-10T05:15:22;3.40;;;0.78;;
54871;SDS011;43914;57.680;11.982;2022-07-10T05:17:48;2.85;;;0.70;;
54871;SDS011;43914;57.680;11.982;2022-07-10T05:20:13;1.72;;;0.70;;
54871;SDS011;43914;57.680;11.982;2022-07-10T05:22:39;1.40;;;0.62;;
54871;SDS011;43914;57.680;11.982;2022-07-10T05:25:05;2.80;;;0.60;;
54871;SDS011;43914;57.680;11.982;2022-07-10T05:27:32;1.15;;;0.60;;
54871;SDS011;43914;57.680;11.982;2022-07-10T05:29:58;0.93;;;0.50;;
54871;SDS011;43914;57.680;11.982;2022-07-10T05:32:24;2.30;;;0.70;;
54871;SDS011;43914;57.680;11.982;2022-07-10T05:34:50;1.52;;;0.53;;
54871;SDS011;43914;57.680;11.982;2022-07-10T05:37:17;1.15;;;0.50;;
54871;SDS011;43914;57.680;11.982;2022-07-10T05:39:43;1.40;;;0.50;;
54871;SDS011;43914;57.680;11.982;2022-07-10T05:42:09;1.22;;;0.60;;
54871;SDS011;43914;57.680;11.982;2022-07-10T05:44:35;0.70;;;0.50;;
54871;SDS011;43914;57.680;11.982;2022-07-10T05:47:01;0.85;;;0.50;;
54871;SDS011;43914;57.680;11.982;2022-07-10T05:49:27;1.72;;;0.50;;
54871;SDS011;43914;57.680;11.982;2022-07-10T05:51:53;0.75;;;0.50;;
54871;SDS011;43914;57.680;11.982;2022-07-10T05:54:19;1.67;;;0.55;;
54871;SDS011;43914;57.680;11.982;2022-07-10T05:56:44;1.50;;;0.60;;
54871;SDS011;43914;57.680;11.982;2022-07-10T05:59:10;1.02;;;0.50;;
54871;SDS011;43914;57.680;11.982;2022-07-10T06:01:36;1.65;;;0.55;;
54871;SDS011;43914;57.680;11.982;2022-07-10T06:04:02;1.17;;;0.60;;
54871;SDS011;43914;57.680;11.982;2022-07-10T06:06:28;0.90;;;0.50;;
54871;SDS011;43914;57.680;11.982;2022-07-10T06:08:55;1.37;;;0.62;;
54871;SDS011;43914;57.680;11.982;2022-07-10T06:11:21;2.00;;;0.60;;
54871;SDS011;43914;57.680;11.982;2022-07-10T06:13:46;1.35;;;0.60;;
54871;SDS011;43914;57.680;11.982;2022-07-10T06:16:12;1.55;;;0.60;;
54871;SDS011;43914;57.680;11.982;2022-07-10T06:18:38;1.05;;;0.50;;
54871;SDS011;43914;57.680;11.982;2022-07-10T06:21:04;2.02;;;0.70;;
54871;SDS011;43914;57.680;11.982;2022-07-10T06:23:30;2.50;;;0.70;;
54871;SDS011;43914;57.680;11.982;2022-07-10T06:25:55;0.60;;;0.45;;
54871;SDS011;43914;57.680;11.982;2022-07-10T06:28:21;0.70;;;0.50;;
54871;SDS011;43914;57.680;11.982;2022-07-10T06:30:47;1.42;;;0.50;;
54871;SDS011;43914;57.680;11.982;2022-07-10T06:33:13;1.20;;;0.60;;
54871;SDS011;43914;57.680;11.982;2022-07-10T06:35:39;1.60;;;0.50;;
54871;SDS011;43914;57.680;11.982;2022-07-10T06:38:05;1.65;;;0.60;;
54871;SDS011;43914;57.680;11.982;2022-07-10T06:40:31;0.75;;;0.50;;
54871;SDS011;43914;57.680;11.982;2022-07-10T06:43:02;1.10;;;0.50;;
54871;SDS011;43914;57.680;11.982;2022-07-10T06:45:29;1.10;;;0.50;;
54871;SDS011;43914;57.680;11.982;2022-07-10T06:47:55;2.22;;;0.50;;
54871;SDS011;43914;57.680;11.982;2022-07-10T06:50:22;0.62;;;0.40;;
54871;SDS011;43914;57.680;11.982;2022-07-10T06:52:54;1.35;;;0.50;;
54871;SDS011;43914;57.680;11.982;2022-07-10T06:55:21;1.05;;;0.55;;
54871;SDS011;43914;57.680;11.982;2022-07-10T06:57:47;1.32;;;0.60;;
54871;SDS011;43914;57.680;11.982;2022-07-10T07:00:14;0.90;;;0.50;;
54871;SDS011;43914;57.680;11.982;2022-07-10T07:02:41;2.67;;;0.50;;
54871;SDS011;43914;57.680;11.982;2022-07-10T07:05:07;4.17;;;0.50;;
54871;SDS011;43914;57.680;11.982;2022-07-10T07:07:34;1.32;;;0.50;;
54871;SDS011;43914;57.680;11.982;2022-07-10T07:10:00;1.27;;;0.60;;
54871;SDS011;43914;57.680;11.982;2022-07-10T07:12:28;1.27;;;0.50;;
54871;SDS011;43914;57.680;11.982;2022-07-10T07:14:54;1.22;;;0.50;;
54871;SDS011;43914;57.680;11.982;2022-07-10T07:17:20;0.75;;;0.50;;
54871;SDS011;43914;57.680;11.982;2022-07-10T07:19:48;2.35;;;0.60;;
54871;SDS011;43914;57.680;11.982;2022-07-10T07:22:33;2.22;;;0.60;;
54871;SDS011;43914;57.680;11.982;2022-07-10T07:25:17;1.10;;;0.55;;
54871;SDS011;43914;57.680;11.982;2022-07-10T07:27:43;0.68;;;0.50;;
54871;SDS011;43914;57.680;11.982;2022-07-10T07:30:10;1.65;;;0.60;;
54871;SDS011;43914;57.680;11.982;2022-07-10T07:32:42;0.80;;;0.50;;
54871;SDS011;43914;57.680;11.982;2022-07-10T07:35:12;0.60;;;0.40;;
54871;SDS011;43914;57.680;11.982;2022-07-10T07:37:39;0.68;;;0.50;;
54871;SDS011;43914;57.680;11.982;2022-07-10T07:40:09;1.20;;;0.50;;
54871;SDS011;43914;57.680;11.982;2022-07-10T07:42:39;1.00;;;0.40;;
54871;SDS011;43914;57.680;11.982;2022-07-10T07:45:08;0.50;;;0.40;;
54871;SDS011;43914;57.680;11.982;2022-07-10T07:47:48;1.55;;;0.50;;
54871;SDS011;43914;57.680;11.982;2022-07-10T07:50:21;1.42;;;0.50;;
54871;SDS011;43914;57.680;11.982;2022-07-10T07:52:48;0.90;;;0.50;;
54871;SDS011;43914;57.680;11.982;2022-07-10T07:55:15;0.53;;;0.40;;
54871;SDS011;43914;57.680;11.982;2022-07-10T07:57:42;0.82;;;0.47;;
54871;SDS011;43914;57.680;11.982;2022-07-10T08:00:09;1.40;;;0.60;;
54871;SDS011;43914;57.680;11.982;2022-07-10T08:02:37;0.78;;;0.50;;
54871;SDS011;43914;57.680;11.982;2022-07-10T08:05:04;0.53;;;0.47;;
54871;SDS011;43914;57.680;11.982;2022-07-10T08:07:35;1.17;;;0.57;;
54871;SDS011;43914;57.680;11.982;2022-07-10T08:10:12;1.37;;;0.50;;
54871;SDS011;43914;57.680;11.982;2022-07-10T08:12:40;1.42;;;0.50;;
54871;SDS011;43914;57.680;11.982;2022-07-10T08:15:08;1.00;;;0.50;;
54871;SDS011;43914;57.680;11.982;2022-07-10T08:17:36;0.68;;;0.50;;
54871;SDS011;43914;57.680;11.982;2022-07-10T08:20:03;0.78;;;0.50;;
54871;SDS011;43914;57.680;11.982;2022-07-10T08:22:31;1.02;;;0.50;;
54871;SDS011;43914;57.680;11.982;2022-07-10T08:24:58;1.40;;;0.50;;
54871;SDS011;43914;57.680;11.982;2022-07-10T08:27:24;0.88;;;0.50;;
54871;SDS011;43914;57.680;11.982;2022-07-10T08:29:51;2.17;;;0.50;;
54871;SDS011;43914;57.680;11.982;2022-07-10T08:32:17;0.82;;;0.50;;
54871;SDS011;43914;57.680;11.982;2022-07-10T08:34:43;2.08;;;0.55;;
54871;SDS011;43914;57.680;11.982;2022-07-10T08:37:09;0.50;;;0.40;;
54871;SDS011;43914;57.680;11.982;2022-07-10T08:39:35;1.42;;;0.50;;
54871;SDS011;43914;57.680;11.982;2022-07-10T08:42:01;0.62;;;0.50;;
54871;SDS011;43914;57.680;11.982;2022-07-10T08:44:30;1.07;;;0.50;;
54871;SDS011;43914;57.680;11.982;2022-07-10T08:46:56;0.45;;;0.40;;
54871;SDS011;43914;57.680;11.982;2022-07-10T08:49:29;1.30;;;0.50;;
54871;SDS011;43914;57.680;11.982;2022-07-10T08:52:06;0.90;;;0.55;;
54871;SDS011;43914;57.680;11.982;2022-07-10T08:54:55;0.60;;;0.45;;
54871;SDS011;43914;57.680;11.982;2022-07-10T08:57:22;0.68;;;0.50;;
54871;SDS011;43914;57.680;11.982;2022-07-10T08:59:49;1.30;;;0.50;;
54871;SDS011;43914;57.680;11.982;2022-07-10T09:02:15;0.80;;;0.50;;
54871;SDS011;43914;57.680;11.982;2022-07-10T09:04:41;2.37;;;0.55;;
54871;SDS011;43914;57.680;11.982;2022-07-10T09:07:07;1.47;;;0.40;;
54871;SDS011;43914;57.680;11.982;2022-07-10T09:09:50;1.45;;;0.50;;
54871;SDS011;43914;57.680;11.982;2022-07-10T09:12:22;1.00;;;0.55;;
54871;SDS011;43914;57.680;11.982;2022-07-10T09:14:49;0.98;;;0.57;;
54871;SDS011;43914;57.680;11.982;2022-07-10T09:17:19;0.60;;;0.40;;
54871;SDS011;43914;57.680;11.982;2022-07-10T09:19:45;0.60;;;0.40;;
54871;SDS011;43914;57.680;11.982;2022-07-10T09:22:11;2.05;;;0.50;;
54871;SDS011;43914;57.680;11.982;2022-07-10T09:24:43;1.37;;;0.55;;
54871;SDS011;43914;57.680;11.982;2022-07-10T09:27:12;0.70;;;0.50;;
54871;SDS011;43914;57.680;11.982;2022-07-10T09:29:47;1.02;;;0.50;;
54871;SDS011;43914;57.680;11.982;2022-07-10T09:32:23;1.50;;;0.50;;
54871;SDS011;43914;57.680;11.982;2022-07-10T09:34:50;1.35;;;0.60;;
54871;SDS011;43914;57.680;11.982;2022-07-10T09:37:30;0.60;;;0.50;;
54871;SDS011;43914;57.680;11.982;2022-07-10T09:39:55;0.75;;;0.50;;
54871;SDS011;43914;57.680;11.982;2022-07-10T09:42:27;1.62;;;0.60;;
54871;SDS011;43914;57.680;11.982;2022-07-10T09:47:46;1.45;;;0.55;;
54871;SDS011;43914;57.680;11.982;2022-07-10T09:55:23;0.65;;;0.50;;
54871;SDS011;43914;57.680;11.982;2022-07-10T09:57:55;0.82;;;0.50;;
54871;SDS011;43914;57.680;11.982;2022-07-10T10:00:28;2.15;;;0.50;;
54871;SDS011;43914;57.680;11.982;2022-07-10T10:03:00;0.80;;;0.50;;
54871;SDS011;43914;57.680;11.982;2022-07-10T10:10:55;1.10;;;0.50;;
54871;SDS011;43914;57.680;11.982;2022-07-10T10:13:23;0.82;;;0.40;;
54871;SDS011;43914;57.680;11.982;2022-07-10T10:15:56;1.17;;;0.50;;
54871;SDS011;43914;57.680;11.982;2022-07-10T10:18:23;1.35;;;0.60;;
54871;SDS011;43914;57.680;11.982;2022-07-10T10:20:51;0.70;;;0.40;;
54871;SDS011;43914;57.680;11.982;2022-07-10T10:23:20;0.42;;;0.40;;
54871;SDS011;43914;57.680;11.982;2022-07-10T10:25:55;0.70;;;0.50;;
54871;SDS011;43914;57.680;11.982;2022-07-10T10:28:23;1.02;;;0.50;;
54871;SDS011;43914;57.680;11.982;2022-07-10T10:30:55;0.50;;;0.40;;
54871;SDS011;43914;57.680;11.982;2022-07-10T10:36:07;1.00;;;0.50;;
54871;SDS011;43914;57.680;11.982;2022-07-10T10:49:47;2.30;;;0.50;;
54871;SDS011;43914;57.680;11.982;2022-07-10T10:52:09;1.62;;;0.60;;
54871;SDS011;43914;57.680;11.982;2022-07-10T11:00:05;2.72;;;0.70;;
54871;SDS011;43914;57.680;11.982;2022-07-10T11:02:33;3.05;;;0.60;;
54871;SDS011;43914;57.680;11.982;2022-07-10T11:10:36;1.47;;;0.50;;
54871;SDS011;43914;57.680;11.982;2022-07-10T11:13:09;3.52;;;0.60;;
54871;SDS011;43914;57.680;11.982;2022-07-10T11:15:47;2.60;;;0.60;;
54871;SDS011;43914;57.680;11.982;2022-07-10T11:18:17;4.60;;;0.80;;
54871;SDS011;43914;57.680;11.982;2022-07-10T11:20:50;2.05;;;0.57;;
54871;SDS011;43914;57.680;11.982;2022-07-10T11:26:10;2.17;;;0.50;;
54871;SDS011;43914;57.680;11.982;2022-07-10T11:28:54;5.50;;;0.62;;
54871;SDS011;43914;57.680;11.982;2022-07-10T11:31:27;1.65;;;0.50;;
54871;SDS011;43914;57.680;11.982;2022-07-10T11:33:55;2.35;;;0.50;;
54871;SDS011;43914;57.680;11.982;2022-07-10T11:36:22;2.52;;;0.50;;
54871;SDS011;43914;57.680;11.982;2022-07-10T11:39:04;1.40;;;0.50;;
54871;SDS011;43914;57.680;11.982;2022-07-10T11:41:31;1.12;;;0.50;;
54871;SDS011;43914;57.680;11.982;2022-07-10T11:44:02;1.32;;;0.50;;
54871;SDS011;43914;57.680;11.982;2022-07-10T11:46:30;2.45;;;0.68;;
54871;SDS011;43914;57.680;11.982;2022-07-10T11:49:01;2.67;;;0.60;;
54871;SDS011;43914;57.680;11.982;2022-07-10T11:51:31;1.60;;;0.60;;
54871;SDS011;43914;57.680;11.982;2022-07-10T11:54:03;1.92;;;0.53;;
54871;SDS011;43914;57.680;11.982;2022-07-10T11:56:38;1.00;;;0.50;;
54871;SDS011;43914;57.680;11.982;2022-07-10T11:59:10;1.65;;;0.60;;
54871;SDS011;43914;57.680;11.982;2022-07-10T12:01:42;2.08;;;0.60;;
54871;SDS011;43914;57.680;11.982;2022-07-10T12:04:14;2.83;;;0.50;;
54871;SDS011;43914;57.680;11.982;2022-07-10T12:06:44;2.05;;;0.80;;
54871;SDS011;43914;57.680;11.982;2022-07-10T12:09:17;3.25;;;0.80;;
54871;SDS011;43914;57.680;11.982;2022-07-10T12:11:57;2.60;;;0.70;;
54871;SDS011;43914;57.680;11.982;2022-07-10T12:14:33;3.42;;;0.57;;
54871;SDS011;43914;57.680;11.982;2022-07-10T12:17:00;1.60;;;0.45;;
54871;SDS011;43914;57.680;11.982;2022-07-10T12:19:36;1.95;;;0.60;;
54871;SDS011;43914;57.680;11.982;2022-07-10T12:21:58;6.33;;;0.68;;
54871;SDS011;43914;57.680;11.982;2022-07-10T12:24:26;3.30;;;0.55;;
54871;SDS011;43914;57.680;11.982;2022-07-10T12:26:52;2.37;;;0.53;;
54871;SDS011;43914;57.680;11.982;2022-07-10T12:31:54;2.08;;;0.55;;
54871;SDS011;43914;57.680;11.982;2022-07-10T12:34:34;2.12;;;0.70;;
54871;SDS011;43914;57.680;11.982;2022-07-10T12:37:08;1.35;;;0.50;;
54871;SDS011;43914;57.680;11.982;2022-07-10T12:39:37;1.50;;;0.55;;
54871;SDS011;43914;57.680;11.982;2022-07-10T12:42:31;2.80;;;0.80;;
54871;SDS011;43914;57.680;11.982;2022-07-10T12:45:10;2.50;;;0.60;;
54871;SDS011;43914;57.680;11.982;2022-07-10T12:47:44;1.95;;;0.50;;
54871;SDS011;43914;57.680;11.982;2022-07-10T12:50:12;2.77;;;0.60;;
54871;SDS011;43914;57.680;11.982;2022-07-10T12:52:41;2.37;;;0.60;;
54871;SDS011;43914;57.680;11.982;2022-07-10T12:55:10;1.85;;;0.50;;
54871;SDS011;43914;57.680;11.982;2022-07-10T13:00:28;1.98;;;0.50;;
54871;SDS011;43914;57.680;11.982;2022-07-10T13:03:01;1.65;;;0.50;;
54871;SDS011;43914;57.680;11.982;2022-07-10T13:05:36;2.10;;;0.60;;
54871;SDS011;43914;57.680;11.982;2022-07-10T13:08:12;3.70;;;0.60;;
54871;SDS011;43914;57.680;11.982;2022-07-10T13:10:54;1.80;;;0.60;;
54871;SDS011;43914;57.680;11.982;2022-07-10T13:13:27;1.30;;;0.50;;
54871;SDS011;43914;57.680;11.982;2022-07-10T13:15:54;2.50;;;0.60;;
54871;SDS011;43914;57.680;11.982;2022-07-10T13:18:27;2.60;;;0.60;;
54871;SDS011;43914;57.680;11.982;2022-07-10T13:20:52;2.33;;;0.60;;
54871;SDS011;43914;57.680;11.982;2022-07-10T13:23:20;1.95;;;0.53;;
54871;SDS011;43914;57.680;11.982;2022-07-10T13:25:52;2.30;;;0.60;;
54871;SDS011;43914;57.680;11.982;2022-07-10T13:28:19;1.35;;;0.50;;
54871;SDS011;43914;57.680;11.982;2022-07-10T13:30:46;2.22;;;0.60;;
54871;SDS011;43914;57.680;11.982;2022-07-10T13:33:12;1.95;;;0.50;;
54871;SDS011;43914;57.680;11.982;2022-07-10T13:35:39;1.75;;;0.50;;
54871;SDS011;43914;57.680;11.982;2022-07-10T13:38:06;3.80;;;0.70;;
54871;SDS011;43914;57.680;11.982;2022-07-10T13:40:33;2.08;;;0.60;;
54871;SDS011;43914;57.680;11.982;2022-07-10T13:43:03;4.05;;;0.70;;
54871;SDS011;43914;57.680;11.982;2022-07-10T13:45:31;2.50;;;0.60;;
54871;SDS011;43914;57.680;11.982;2022-07-10T13:48:05;2.95;;;0.50;;
54871;SDS011;43914;57.680;11.982;2022-07-10T13:50:32;2.65;;;0.60;;
54871;SDS011;43914;57.680;11.982;2022-07-10T13:52:57;2.60;;;0.50;;
54871;SDS011;43914;57.680;11.982;2022-07-10T13:55:24;2.70;;;0.62;;
54871;SDS011;43914;57.680;11.982;2022-07-10T13:57:49;2.27;;;0.65;;
54871;SDS011;43914;57.680;11.982;2022-07-10T14:00:15;4.42;;;0.80;;
54871;SDS011;43914;57.680;11.982;2022-07-10T14:02:41;3.15;;;0.70;;
54871;SDS011;43914;57.680;11.982;2022-07-10T14:05:07;1.00;;;0.50;;
54871;SDS011;43914;57.680;11.982;2022-07-10T14:07:33;2.17;;;0.60;;
54871;SDS011;43914;57.680;11.982;2022-07-10T14:09:59;3.90;;;0.60;;
54871;SDS011;43914;57.680;11.982;2022-07-10T14:12:26;3.00;;;0.60;;
54871;SDS011;43914;57.680;11.982;2022-07-10T14:14:52;2.35;;;0.60;;
54871;SDS011;43914;57.680;11.982;2022-07-10T14:17:18;3.22;;;0.60;;
54871;SDS011;43914;57.680;11.982;2022-07-10T14:19:44;2.52;;;0.62;;
54871;SDS011;43914;57.680;11.982;2022-07-10T14:22:10;1.92;;;0.65;;
54871;SDS011;43914;57.680;11.982;2022-07-10T14:24:36;4.65;;;0.80;;
54871;SDS011;43914;57.680;11.982;2022-07-10T14:27:02;2.33;;;0.60;;
54871;SDS011;43914;57.680;11.982;2022-07-10T14:29:29;1.82;;;0.50;;
54871;SDS011;43914;57.680;11.982;2022-07-10T14:31:54;3.15;;;0.70;;
54871;SDS011;43914;57.680;11.982;2022-07-10T14:34:20;4.87;;;0.57;;
54871;SDS011;43914;57.680;11.982;2022-07-10T14:36:48;3.65;;;0.70;;
54871;SDS011;43914;57.680;11.982;2022-07-10T14:39:14;2.05;;;0.60;;
54871;SDS011;43914;57.680;11.982;2022-07-10T14:41:39;3.02;;;0.70;;
54871;SDS011;43914;57.680;11.982;2022-07-10T14:44:05;3.77;;;0.80;;
54871;SDS011;43914;57.680;11.982;2022-07-10T14:46:32;4.97;;;0.90;;
54871;SDS011;43914;57.680;11.982;2022-07-10T14:48:59;1.55;;;0.50;;
54871;SDS011;43914;57.680;11.982;2022-07-10T14:51:25;2.90;;;0.75;;
54871;SDS011;43914;57.680;11.982;2022-07-10T14:53:51;1.85;;;0.60;;
54871;SDS011;43914;57.680;11.982;2022-07-10T14:56:17;2.67;;;0.60;;
54871;SDS011;43914;57.680;11.982;2022-07-10T14:58:44;3.72;;;0.70;;
54871;SDS011;43914;57.680;11.982;2022-07-10T15:01:11;3.60;;;0.75;;
54871;SDS011;43914;57.680;11.982;2022-07-10T15:03:39;2.60;;;0.95;;
54871;SDS011;43914;57.680;11.982;2022-07-10T15:06:05;6.42;;;0.93;;
54871;SDS011;43914;57.680;11.982;2022-07-10T15:08:31;2.87;;;0.88;;
54871;SDS011;43914;57.680;11.982;2022-07-10T15:10:57;4.65;;;0.80;;
54871;SDS011;43914;57.680;11.982;2022-07-10T15:13:25;4.15;;;0.80;;
54871;SDS011;43914;57.680;11.982;2022-07-10T15:15:53;6.33;;;0.90;;
54871;SDS011;43914;57.680;11.982;2022-07-10T15:18:19;1.98;;;0.70;;
54871;SDS011;43914;57.680;11.982;2022-07-10T15:20:46;3.25;;;0.70;;
54871;SDS011;43914;57.680;11.982;2022-07-10T15:23:12;3.22;;;0.60;;